Time;durP1;ratioP1;P1;durP2;ratioP2;P2;SDS_P1;SDS_P2;PMS_P1;PMS_P2;Temp;Humidity;BMP_temperature;BMP_pressure;BME280_temperature;BME280_humidity;BME280_pressure;Samples;Min_cycle;Max_cycle;Signal;HPM_P1;HPM_P2
2021/06/03 00:00:10;;;;;;;0.37;0.33;;;19.60;99.90;;;;;;5001413;28;20183;-80
2021/06/03 00:02:36;;;;;;;0.30;0.30;;;19.80;99.90;;;;;;5013927;28;20233;-81
2021/06/03 00:05:06;;;;;;;0.37;0.37;;;19.90;99.90;;;;;;5004337;28;20634;-80
2021/06/03 00:07:31;;;;;;;0.10;0.10;;;19.90;99.90;;;;;;5006748;28;20179;-81
2021/06/03 00:09:57;;;;;;;1.40;0.60;;;19.90;99.90;;;;;;5014905;28;20190;-81
2021/06/03 00:12:22;;;;;;;0.20;0.20;;;20.00;99.90;;;;;;5017914;28;20656;-80
2021/06/03 00:14:48;;;;;;;0.70;0.50;;;20.00;99.90;;;;;;5046811;28;20219;-80
2021/06/03 00:17:13;;;;;;;0.70;0.70;;;20.10;99.90;;;;;;5014374;28;20226;-81
2021/06/03 00:19:39;;;;;;;1.13;0.43;;;20.10;99.90;;;;;;5009634;28;20204;-81
2021/06/03 00:22:05;;;;;;;0.40;0.40;;;19.90;99.90;;;;;;5013719;28;20667;-80
2021/06/03 00:24:30;;;;;;;0.70;0.70;;;19.70;99.90;;;;;;5008785;28;20254;-79
2021/06/03 00:26:56;;;;;;;0.63;0.63;;;19.40;99.90;;;;;;5014536;28;20183;-81
2021/06/03 00:29:21;;;;;;;0.37;0.37;;;19.00;99.90;;;;;;4999855;28;20187;-80
2021/06/03 00:31:47;;;;;;;0.53;0.53;;;19.10;99.90;;;;;;4995271;28;20270;-80
2021/06/03 00:34:12;;;;;;;2.83;0.80;;;19.10;99.90;;;;;;4996088;28;20589;-80
2021/06/03 00:36:38;;;;;;;0.73;0.60;;;19.10;99.90;;;;;;5010476;28;20560;-80
2021/06/03 00:39:05;;;;;;;0.30;0.30;;;19.00;99.90;;;;;;5004977;28;20846;-81
2021/06/03 00:41:31;;;;;;;0.30;0.30;;;19.00;99.90;;;;;;5012810;28;20185;-80
2021/06/03 00:44:00;;;;;;;0.53;0.50;;;19.00;99.90;;;;;;5007625;28;20183;-80
2021/06/03 00:46:25;;;;;;;0.27;0.27;;;19.10;99.90;;;;;;5013433;28;20194;-80
2021/06/03 00:48:51;;;;;;;0.63;0.63;;;19.20;99.90;;;;;;5014122;28;20565;-80
2021/06/03 00:51:17;;;;;;;0.67;0.67;;;19.30;99.90;;;;;;5014561;28;20247;-80
2021/06/03 00:53:45;;;;;;;0.30;0.30;;;19.30;99.90;;;;;;5006588;28;20198;-81
2021/06/03 00:56:11;;;;;;;0.20;0.20;;;19.40;99.90;;;;;;5012982;28;20235;-79
2021/06/03 00:58:36;;;;;;;0.50;0.50;;;19.40;99.90;;;;;;5040250;22;20328;-84
2021/06/03 01:01:03;;;;;;;0.60;0.60;;;19.00;99.90;;;;;;5032678;28;20189;-85
2021/06/03 01:03:29;;;;;;;0.30;0.30;;;18.90;99.90;;;;;;5031521;28;20175;-83
2021/06/03 01:06:01;;;;;;;0.50;0.50;;;18.80;99.90;;;;;;5031206;28;20279;-84
2021/06/03 01:08:39;;;;;;;0.63;0.63;;;18.60;99.90;;;;;;5031586;28;20697;-84
2021/06/03 01:11:24;;;;;;;0.20;0.20;;;18.50;99.90;;;;;;5029330;28;20204;-83
2021/06/03 01:14:09;;;;;;;0.27;0.27;;;18.50;99.90;;;;;;5030338;28;20252;-84
2021/06/03 01:16:35;;;;;;;0.30;0.27;;;18.60;99.90;;;;;;5032264;28;20218;-84
2021/06/03 01:19:08;;;;;;;0.40;0.40;;;18.60;99.90;;;;;;5029841;28;20788;-84
2021/06/03 01:22:01;;;;;;;0.50;0.30;;;18.60;99.90;;;;;;5032159;28;20316;-84
2021/06/03 01:24:34;;;;;;;0.20;0.20;;;18.60;99.90;;;;;;5030489;28;20178;-84
2021/06/03 01:27:16;;;;;;;0.40;0.33;;;18.40;99.90;;;;;;5031151;28;20193;-83
2021/06/03 01:29:51;;;;;;;0.50;0.43;;;18.20;99.90;;;;;;5028316;28;20604;-84
2021/06/03 01:32:18;;;;;;;0.30;0.30;;;18.00;99.90;;;;;;5026971;28;20666;-84
2021/06/03 01:34:45;;;;;;;0.33;0.33;;;18.10;99.90;;;;;;5030664;28;20658;-84
2021/06/03 01:37:11;;;;;;;0.87;0.20;;;18.10;99.90;;;;;;5030812;28;20280;-84
2021/06/03 01:39:38;;;;;;;0.43;0.40;;;18.00;99.90;;;;;;5030056;28;20191;-84
2021/06/03 01:42:04;;;;;;;0.40;0.40;;;17.90;99.90;;;;;;5030416;28;20672;-84
2021/06/03 01:44:31;;;;;;;0.30;0.30;;;17.90;99.90;;;;;;5030988;28;20185;-84
2021/06/03 01:46:57;;;;;;;0.33;0.33;;;17.90;99.90;;;;;;5030407;28;20190;-84
2021/06/03 01:49:24;;;;;;;0.40;0.40;;;18.10;99.90;;;;;;5030886;28;20221;-84
2021/06/03 01:51:50;;;;;;;0.37;0.37;;;18.20;99.90;;;;;;5027342;28;20258;-84
2021/06/03 01:54:18;;;;;;;0.37;0.10;;;18.30;99.90;;;;;;5031682;28;20178;-84
2021/06/03 01:56:45;;;;;;;0.43;0.40;;;18.30;99.90;;;;;;5029653;28;20209;-84
2021/06/03 01:59:11;;;;;;;0.20;0.20;;;18.30;99.90;;;;;;5029537;28;20584;-84
2021/06/03 02:01:36;;;;;;;0.30;0.30;;;18.40;99.90;;;;;;5029818;28;20191;-84
2021/06/03 02:04:02;;;;;;;0.33;0.33;;;18.30;99.90;;;;;;5029574;28;20237;-84
2021/06/03 02:06:27;;;;;;;0.13;0.13;;;18.40;99.90;;;;;;5029390;28;20205;-84
2021/06/03 02:08:53;;;;;;;0.90;0.20;;;18.40;99.90;;;;;;5024100;28;20276;-84
2021/06/03 02:11:19;;;;;;;0.27;0.27;;;18.50;99.90;;;;;;5031310;28;20182;-84
2021/06/03 02:13:50;;;;;;;0.30;0.30;;;18.50;99.90;;;;;;5029709;28;20195;-84
2021/06/03 02:16:28;;;;;;;0.87;0.30;;;18.50;99.90;;;;;;5029475;28;20214;-84
2021/06/03 02:18:56;;;;;;;0.50;0.50;;;18.50;99.90;;;;;;5028763;28;20205;-84
2021/06/03 02:21:23;;;;;;;0.10;0.10;;;18.30;99.90;;;;;;5030077;28;20194;-84
2021/06/03 02:23:49;;;;;;;0.20;0.20;;;18.20;99.90;;;;;;5018088;28;20341;-84
2021/06/03 02:26:17;;;;;;;0.27;0.27;;;18.20;99.90;;;;;;5029730;28;20560;-84
2021/06/03 02:28:43;;;;;;;0.33;0.33;;;18.00;99.90;;;;;;5028786;28;20279;-84
2021/06/03 02:31:10;;;;;;;0.20;0.20;;;17.90;99.90;;;;;;5028196;28;20257;-84
2021/06/03 02:33:35;;;;;;;0.20;0.20;;;17.70;99.90;;;;;;5030114;28;20687;-84
2021/06/03 02:36:02;;;;;;;0.30;0.30;;;17.70;99.90;;;;;;5030290;28;20316;-84
2021/06/03 02:38:31;;;;;;;0.10;0.10;;;17.70;99.90;;;;;;5035256;28;20204;-84
2021/06/03 02:41:03;;;;;;;0.23;0.23;;;17.60;99.90;;;;;;5032938;28;20209;-84
2021/06/03 02:43:29;;;;;;;0.50;0.23;;;17.50;99.90;;;;;;5034434;28;20182;-84
2021/06/03 02:45:55;;;;;;;0.27;0.27;;;17.60;99.90;;;;;;5033910;28;20204;-84
2021/06/03 02:48:21;;;;;;;0.17;0.17;;;17.50;99.90;;;;;;5034010;28;20211;-84
2021/06/03 02:50:47;;;;;;;0.67;0.37;;;17.40;99.90;;;;;;5033867;28;20193;-84
2021/06/03 02:53:13;;;;;;;0.33;0.33;;;17.10;99.90;;;;;;5033347;28;20190;-84
2021/06/03 02:55:40;;;;;;;0.40;0.40;;;17.10;99.90;;;;;;5033125;28;20182;-84
2021/06/03 02:58:06;;;;;;;0.20;0.20;;;17.20;99.90;;;;;;5034806;28;20364;-84
2021/06/03 03:00:35;;;;;;;0.10;0.10;;;17.30;99.90;;;;;;5033510;28;20466;-84
2021/06/03 03:03:02;;;;;;;0.10;0.10;;;17.40;99.90;;;;;;5033387;28;20278;-84
2021/06/03 03:05:28;;;;;;;0.20;0.20;;;17.50;99.90;;;;;;5031029;28;20190;-83
2021/06/03 03:07:54;;;;;;;1.10;0.20;;;17.70;99.90;;;;;;5034902;28;20237;-84
2021/06/03 03:10:23;;;;;;;0.10;0.10;;;17.60;99.90;;;;;;5032946;28;20186;-84
2021/06/03 03:12:49;;;;;;;0.20;0.20;;;17.40;99.90;;;;;;5034434;28;20299;-84
2021/06/03 03:15:16;;;;;;;0.30;0.30;;;17.40;99.90;;;;;;5026793;28;20179;-84
2021/06/03 03:17:42;;;;;;;0.23;0.23;;;17.40;99.90;;;;;;5021094;28;20295;-83
2021/06/03 03:20:11;;;;;;;0.20;0.20;;;17.50;99.90;;;;;;5033172;28;20294;-85
2021/06/03 03:22:38;;;;;;;0.10;0.10;;;17.50;99.90;;;;;;5032725;28;20658;-84
2021/06/03 03:25:07;;;;;;;0.20;0.20;;;17.50;99.90;;;;;;5028058;28;20183;-85
2021/06/03 03:27:33;;;;;;;0.10;0.10;;;17.60;99.90;;;;;;5031492;28;20637;-84
2021/06/03 03:29:59;;;;;;;0.30;0.20;;;17.70;99.90;;;;;;5034567;28;20209;-84
2021/06/03 03:32:24;;;;;;;0.10;0.10;;;17.90;99.90;;;;;;5032726;28;20187;-84
2021/06/03 03:34:50;;;;;;;0.40;0.40;;;17.80;99.90;;;;;;5021431;28;20665;-85
2021/06/03 03:37:16;;;;;;;0.40;0.40;;;17.70;99.90;;;;;;5027277;28;20209;-84
2021/06/03 03:39:41;;;;;;;0.10;0.10;;;17.70;99.90;;;;;;5033447;28;20213;-84
2021/06/03 03:42:07;;;;;;;0.53;0.50;;;18.40;99.90;;;;;;5029733;28;20186;-84
2021/06/03 03:44:32;;;;;;;0.30;0.30;;;18.90;99.90;;;;;;5032662;28;20278;-83
2021/06/03 03:46:58;;;;;;;0.63;0.20;;;19.20;99.90;;;;;;5029051;28;20184;-84
2021/06/03 03:49:24;;;;;;;0.20;0.10;;;19.40;99.90;;;;;;5032402;28;20637;-84
2021/06/03 03:51:50;;;;;;;0.20;0.20;;;19.50;99.90;;;;;;5029229;28;20190;-84
2021/06/03 03:54:16;;;;;;;0.10;0.10;;;19.90;99.90;;;;;;5027976;28;20265;-84
2021/06/03 03:56:41;;;;;;;0.37;0.33;;;20.30;99.90;;;;;;5032311;28;20234;-84
2021/06/03 03:59:07;;;;;;;0.20;0.20;;;20.40;99.90;;;;;;5024483;28;20217;-84
2021/06/03 04:01:33;;;;;;;0.47;0.30;;;20.90;99.90;;;;;;5029360;28;20190;-84
2021/06/03 04:07:20;;;;;;;0.23;0.23;;;20.80;99.90;;;;;;5030961;28;20607;-84
2021/06/03 04:09:46;;;;;;;0.20;0.20;;;19.30;99.90;;;;;;5031879;28;20182;-85
2021/06/03 04:12:11;;;;;;;0.60;0.60;;;18.70;99.90;;;;;;5021398;28;20584;-84
2021/06/03 04:14:37;;;;;;;0.13;0.13;;;18.30;99.90;;;;;;5031536;28;20552;-84
2021/06/03 04:17:03;;;;;;;0.27;0.10;;;18.10;99.90;;;;;;5028868;28;20209;-84
2021/06/03 04:19:28;;;;;;;0.40;0.30;;;18.10;99.90;;;;;;5029956;28;20183;-84
2021/06/03 04:21:54;;;;;;;0.40;0.40;;;18.20;99.90;;;;;;5025532;28;20180;-84
2021/06/03 04:24:20;;;;;;;0.10;0.10;;;18.50;99.90;;;;;;5027870;28;20276;-84
2021/06/03 04:26:45;;;;;;;0.20;0.20;;;18.80;99.90;;;;;;5029292;28;20190;-84
2021/06/03 04:29:11;;;;;;;0.37;0.37;;;18.90;99.90;;;;;;5026548;28;20712;-84
2021/06/03 04:31:37;;;;;;;0.10;0.10;;;19.00;99.90;;;;;;5028897;28;20194;-84
2021/06/03 04:34:02;;;;;;;0.13;0.13;;;18.80;99.90;;;;;;5029657;28;20186;-83
2021/06/03 04:36:28;;;;;;;0.20;0.20;;;18.80;99.90;;;;;;5030300;28;20290;-84
2021/06/03 04:38:54;;;;;;;0.83;0.27;;;18.70;99.90;;;;;;5031479;28;20260;-83
2021/06/03 04:41:19;;;;;;;0.20;0.20;;;18.60;99.90;;;;;;5030416;28;20627;-84
2021/06/03 04:43:45;;;;;;;0.33;0.30;;;18.70;99.90;;;;;;5029485;28;20185;-84
2021/06/03 04:46:12;;;;;;;0.33;0.33;;;18.60;99.90;;;;;;5030245;28;20654;-84
2021/06/03 04:48:37;;;;;;;0.20;0.20;;;18.40;99.90;;;;;;5032816;28;20208;-84
2021/06/03 04:51:04;;;;;;;0.10;0.10;;;18.60;99.90;;;;;;5029721;28;20189;-84
2021/06/03 04:53:30;;;;;;;0.23;0.23;;;18.80;99.90;;;;;;5030376;28;20214;-84
2021/06/03 04:55:56;;;;;;;0.20;0.20;;;18.70;99.90;;;;;;5031250;28;20217;-83
2021/06/03 04:58:21;;;;;;;0.20;0.20;;;18.80;99.90;;;;;;5029577;28;20210;-84
2021/06/03 05:00:47;;;;;;;0.10;0.10;;;18.70;99.90;;;;;;5029409;28;20208;-84
2021/06/03 05:03:14;;;;;;;0.20;0.20;;;18.90;99.90;;;;;;5032030;28;20190;-84
2021/06/03 05:05:41;;;;;;;0.30;0.30;;;19.10;99.90;;;;;;5020485;28;20187;-84
2021/06/03 05:08:07;;;;;;;0.17;0.17;;;19.40;99.90;;;;;;5028667;28;20217;-84
2021/06/03 05:10:33;;;;;;;0.20;0.10;;;19.60;99.90;;;;;;5030140;28;20604;-84
2021/06/03 05:12:59;;;;;;;0.17;0.17;;;19.90;99.90;;;;;;5026666;28;20181;-84
2021/06/03 05:15:25;;;;;;;0.10;0.10;;;20.10;99.90;;;;;;5028164;28;20273;-84
2021/06/03 05:17:53;;;;;;;0.30;0.23;;;20.20;99.90;;;;;;5029197;28;20222;-84
2021/06/03 05:20:21;;;;;;;0.40;0.40;;;20.40;99.90;;;;;;5029473;28;20188;-84
2021/06/03 05:22:50;;;;;;;0.40;0.30;;;20.60;99.90;;;;;;5030273;28;20244;-84
2021/06/03 05:25:17;;;;;;;0.27;0.27;;;20.90;99.90;;;;;;5028417;28;20218;-84
2021/06/03 05:27:43;;;;;;;0.83;0.30;;;21.20;99.90;;;;;;5030039;28;20214;-84
2021/06/03 05:30:12;;;;;;;0.20;0.20;;;21.40;99.90;;;;;;5029046;28;20202;-84
2021/06/03 05:32:38;;;;;;;0.20;0.20;;;21.50;99.90;;;;;;5026888;28;20198;-83
2021/06/03 05:35:06;;;;;;;0.20;0.10;;;21.80;99.90;;;;;;5032700;28;20198;-83
2021/06/03 05:37:31;;;;;;;1.20;0.30;;;22.00;99.90;;;;;;5034075;28;20699;-83
2021/06/03 05:39:57;;;;;;;0.20;0.20;;;22.20;99.90;;;;;;5028830;28;20189;-82
2021/06/03 05:42:23;;;;;;;0.23;0.23;;;22.20;99.90;;;;;;5031086;28;20186;-84
2021/06/03 05:44:49;;;;;;;0.20;0.20;;;22.20;99.90;;;;;;5033248;28;21015;-83
2021/06/03 05:47:15;;;;;;;0.20;0.20;;;22.20;99.90;;;;;;5039573;28;20186;-81
2021/06/03 05:49:40;;;;;;;0.37;0.30;;;22.30;99.90;;;;;;5038388;28;20191;-82
2021/06/03 05:52:06;;;;;;;0.23;0.23;;;22.30;99.90;;;;;;5038925;28;20617;-81
2021/06/03 05:54:33;;;;;;;0.30;0.30;;;22.30;99.90;;;;;;5037295;28;20209;-81
2021/06/03 05:56:59;;;;;;;0.30;0.30;;;22.30;99.90;;;;;;5039990;28;20239;-81
2021/06/03 05:59:26;;;;;;;1.07;0.37;;;22.30;99.90;;;;;;5036553;28;20356;-83
2021/06/03 06:01:55;;;;;;;0.20;0.20;;;22.30;99.90;;;;;;5035439;28;20186;-82
2021/06/03 06:06:49;;;;;;;0.20;0.20;;;22.30;99.90;;;;;;5037112;28;20196;-82
2021/06/03 06:09:15;;;;;;;0.53;0.40;;;22.30;99.90;;;;;;5036950;28;20202;-83
2021/06/03 06:11:42;;;;;;;0.67;0.67;;;22.30;99.90;;;;;;5035831;28;20194;-82
2021/06/03 06:14:08;;;;;;;0.33;0.30;;;22.50;99.90;;;;;;5034753;28;20193;-82
2021/06/03 06:16:35;;;;;;;0.30;0.30;;;22.60;99.90;;;;;;5035102;28;20218;-83
2021/06/03 06:19:01;;;;;;;0.20;0.20;;;22.80;99.90;;;;;;5035519;28;20697;-82
2021/06/03 06:21:27;;;;;;;2.03;0.50;;;23.00;99.90;;;;;;5034618;28;20182;-83
2021/06/03 06:23:53;;;;;;;0.53;0.43;;;23.20;99.90;;;;;;5026629;28;20190;-83
2021/06/03 06:26:20;;;;;;;0.10;0.10;;;23.30;99.90;;;;;;5037001;28;20182;-83
2021/06/03 06:28:47;;;;;;;0.23;0.23;;;23.50;99.90;;;;;;5034195;28;20233;-82
2021/06/03 06:31:13;;;;;;;0.50;0.50;;;23.70;99.90;;;;;;5036068;28;20181;-83
2021/06/03 06:33:39;;;;;;;0.10;0.10;;;24.00;99.90;;;;;;5035753;28;20206;-83
2021/06/03 06:36:06;;;;;;;0.20;0.20;;;24.20;99.90;;;;;;5035784;28;20178;-83
2021/06/03 06:38:33;;;;;;;0.50;0.40;;;24.30;99.90;;;;;;5034206;28;20579;-83
2021/06/03 06:40:58;;;;;;;1.90;1.70;;;24.30;99.90;;;;;;5033492;28;20262;-83
2021/06/03 06:43:24;;;;;;;0.10;0.10;;;24.40;99.90;;;;;;5032391;28;20273;-82
2021/06/03 06:45:51;;;;;;;0.30;0.30;;;24.70;99.90;;;;;;5034635;28;20185;-83
2021/06/03 06:48:17;;;;;;;0.30;0.30;;;24.70;99.90;;;;;;5033371;28;20198;-83
2021/06/03 06:50:45;;;;;;;0.37;0.37;;;24.60;99.90;;;;;;5034025;28;20638;-83
2021/06/03 06:53:12;;;;;;;0.10;0.10;;;24.60;99.90;;;;;;5039317;28;20250;-83
2021/06/03 06:55:38;;;;;;;0.30;0.30;;;24.40;99.90;;;;;;5044435;28;20198;-83
2021/06/03 06:58:05;;;;;;;0.23;0.23;;;24.50;99.90;;;;;;5036074;28;20768;-82
2021/06/03 07:00:33;;;;;;;0.30;0.30;;;24.50;99.90;;;;;;5040591;28;20182;-83
2021/06/03 07:02:59;;;;;;;0.30;0.30;;;24.50;99.90;;;;;;5043008;28;20206;-83
2021/06/03 07:05:27;;;;;;;0.37;0.37;;;24.30;99.90;;;;;;5039559;28;20213;-83
2021/06/03 07:07:53;;;;;;;0.20;0.20;;;24.30;99.90;;;;;;5035768;28;20206;-82
2021/06/03 07:10:20;;;;;;;0.30;0.30;;;24.40;99.90;;;;;;5035593;28;20182;-84
2021/06/03 07:12:47;;;;;;;0.20;0.20;;;24.50;99.90;;;;;;5045197;28;20182;-83
2021/06/03 07:15:14;;;;;;;0.27;0.27;;;24.70;99.90;;;;;;5047988;28;20197;-83
2021/06/03 07:17:40;;;;;;;0.30;0.30;;;24.80;99.90;;;;;;5047616;28;20222;-84
2021/06/03 07:20:10;;;;;;;0.60;0.40;;;25.00;99.90;;;;;;5049249;28;20190;-86
2021/06/03 07:22:36;;;;;;;0.30;0.30;;;24.80;99.90;;;;;;5045806;28;20186;-84
2021/06/03 07:25:04;;;;;;;0.50;0.43;;;24.90;99.90;;;;;;5057540;28;20201;-85
2021/06/03 07:27:30;;;;;;;0.27;0.27;;;24.80;99.90;;;;;;5055284;28;20187;-83
2021/06/03 07:29:58;;;;;;;0.40;0.40;;;25.00;99.90;;;;;;5053327;28;20174;-83
2021/06/03 07:32:24;;;;;;;0.47;0.47;;;25.00;99.90;;;;;;5047834;28;20202;-84
2021/06/03 07:34:50;;;;;;;1.27;1.17;;;25.20;99.90;;;;;;5048917;28;20212;-83
2021/06/03 07:37:15;;;;;;;0.20;0.20;;;25.00;99.90;;;;;;5054372;28;20304;-84
2021/06/03 07:39:41;;;;;;;1.00;0.30;;;25.00;99.90;;;;;;5055481;28;20219;-83
2021/06/03 07:42:06;;;;;;;0.30;0.30;;;25.30;99.90;;;;;;5055364;28;20221;-83
2021/06/03 07:44:32;;;;;;;0.37;0.37;;;25.40;99.90;;;;;;5054481;28;20200;-83
2021/06/03 07:46:58;;;;;;;0.67;0.37;;;25.50;99.90;;;;;;5055687;28;20191;-83
2021/06/03 07:49:23;;;;;;;1.37;0.50;;;25.60;99.90;;;;;;5039074;28;20216;-84
2021/06/03 07:51:49;;;;;;;0.40;0.40;;;25.80;99.90;;;;;;5041298;28;20181;-83
2021/06/03 07:54:14;;;;;;;0.60;0.57;;;25.80;99.90;;;;;;5049357;28;20179;-84
2021/06/03 07:56:40;;;;;;;0.30;0.30;;;25.80;99.90;;;;;;5050815;28;20209;-83
2021/06/03 07:59:06;;;;;;;2.00;0.70;;;25.50;99.90;;;;;;5049972;28;20222;-83
2021/06/03 08:01:32;;;;;;;0.47;0.47;;;25.40;99.90;;;;;;5052234;28;20246;-83
2021/06/03 08:03:57;;;;;;;1.33;0.97;;;25.40;99.90;;;;;;5053331;28;20187;-83
2021/06/03 08:06:23;;;;;;;0.23;0.23;;;25.40;99.90;;;;;;5050621;28;20182;-83
2021/06/03 08:08:48;;;;;;;0.20;0.20;;;25.60;99.90;;;;;;5049329;28;20205;-83
2021/06/03 08:11:14;;;;;;;0.43;0.43;;;25.70;99.90;;;;;;5050967;28;20190;-83
2021/06/03 08:13:40;;;;;;;0.47;0.47;;;26.00;99.90;;;;;;5051422;28;20548;-84
2021/06/03 08:16:06;;;;;;;0.40;0.40;;;26.10;99.90;;;;;;5041272;28;20178;-84
2021/06/03 08:18:32;;;;;;;0.20;0.20;;;26.30;99.90;;;;;;5035842;28;20260;-83
2021/06/03 08:21:00;;;;;;;0.83;0.60;;;26.50;99.90;;;;;;5036655;28;20174;-84
2021/06/03 08:23:28;;;;;;;1.13;0.47;;;26.30;99.90;;;;;;5038911;28;20212;-84
2021/06/03 08:25:56;;;;;;;0.30;0.30;;;26.10;99.90;;;;;;5036733;28;21503;-84
2021/06/03 08:28:22;;;;;;;0.50;0.50;;;25.90;99.90;;;;;;5035182;28;20206;-84
2021/06/03 08:30:47;;;;;;;1.50;0.53;;;26.10;99.90;;;;;;5034472;28;20182;-83
2021/06/03 08:33:13;;;;;;;0.40;0.40;;;26.30;99.90;;;;;;5034363;28;20725;-84
2021/06/03 08:35:39;;;;;;;0.33;0.33;;;26.30;99.90;;;;;;5036724;28;20189;-84
2021/06/03 08:38:08;;;;;;;0.30;0.30;;;26.40;99.90;;;;;;5034889;28;20206;-84
2021/06/03 08:41:01;;;;;;;0.37;0.37;;;26.30;99.90;;;;;;5035086;28;20192;-84
2021/06/03 08:43:29;;;;;;;0.30;0.30;;;26.50;99.90;;;;;;5026345;28;20248;-84
2021/06/03 08:45:56;;;;;;;0.37;0.30;;;26.70;99.90;;;;;;5034821;28;20174;-83
2021/06/03 08:48:23;;;;;;;0.37;0.37;;;27.00;99.90;;;;;;5032455;28;20210;-84
2021/06/03 08:50:53;;;;;;;0.87;0.50;;;27.00;99.90;;;;;;5033321;28;20193;-83
2021/06/03 08:53:19;;;;;;;0.40;0.33;;;27.00;99.90;;;;;;5035341;28;20178;-83
2021/06/03 08:58:32;;;;;;;0.30;0.30;;;27.20;99.90;;;;;;5034234;28;20237;-84
2021/06/03 09:00:59;;;;;;;0.67;0.40;;;27.20;99.90;;;;;;5033359;28;20808;-84
2021/06/03 09:03:26;;;;;;;0.47;0.40;;;27.30;99.90;;;;;;5033373;28;20182;-83
2021/06/03 09:05:52;;;;;;;0.47;0.47;;;27.60;99.90;;;;;;5033893;28;20174;-84
2021/06/03 09:08:19;;;;;;;0.40;0.40;;;27.80;99.90;;;;;;5032958;28;20220;-84
2021/06/03 09:10:47;;;;;;;0.53;0.53;;;27.70;99.90;;;;;;5032840;28;20273;-84
2021/06/03 09:13:20;;;;;;;0.40;0.40;;;27.60;99.90;;;;;;5033624;28;20178;-84
2021/06/03 09:16:09;;;;;;;0.30;0.30;;;27.60;99.90;;;;;;5032698;28;20186;-84
2021/06/03 09:18:39;;;;;;;0.17;0.17;;;27.80;99.90;;;;;;5029529;28;20237;-83
2021/06/03 09:21:10;;;;;;;0.40;0.40;;;27.80;99.90;;;;;;5033663;28;20179;-83
2021/06/03 09:23:37;;;;;;;3.20;0.60;;;28.10;99.90;;;;;;5032126;28;20182;-84
2021/06/03 09:26:17;;;;;;;0.93;0.70;;;27.80;99.90;;;;;;5034619;28;20594;-84
2021/06/03 09:28:45;;;;;;;0.50;0.50;;;27.50;99.90;;;;;;5032116;28;20197;-84
2021/06/03 09:31:15;;;;;;;0.65;0.65;;;27.60;99.90;;;;;;5033426;28;20202;-84
2021/06/03 09:33:45;;;;;;;0.60;0.60;;;27.40;99.90;;;;;;5031613;28;20186;-84
2021/06/03 09:36:15;;;;;;;0.50;0.50;;;27.40;99.90;;;;;;5032619;28;20167;-83
2021/06/03 09:39:04;;;;;;;0.98;0.80;;;26.60;99.90;;;;;;5031049;28;20261;-84
2021/06/03 09:41:31;;;;;;;0.40;0.40;;;27.00;99.90;;;;;;5030866;28;20582;-84
2021/06/03 09:44:17;;;;;;;0.33;0.33;;;27.20;99.90;;;;;;5017989;28;20178;-84
2021/06/03 09:47:10;;;;;;;0.60;0.53;;;27.40;99.90;;;;;;5027842;28;20236;-83
2021/06/03 09:49:39;;;;;;;0.67;0.67;;;27.60;99.90;;;;;;5028467;28;20194;-84
2021/06/03 09:52:11;;;;;;;0.33;0.33;;;27.80;99.90;;;;;;5032018;28;20210;-84
2021/06/03 09:54:37;;;;;;;2.75;0.60;;;27.90;99.90;;;;;;5030902;28;20186;-83
2021/06/03 09:57:06;;;;;;;0.40;0.40;;;27.80;99.90;;;;;;5031878;28;20226;-84
2021/06/03 09:59:40;;;;;;;0.55;0.50;;;28.10;99.90;;;;;;5032410;28;20187;-84
2021/06/03 10:02:11;;;;;;;0.55;0.55;;;28.10;99.90;;;;;;5030655;28;20658;-84
2021/06/03 10:04:47;;;;;;;0.77;0.55;;;28.20;99.90;;;;;;5030882;28;20562;-84
2021/06/03 10:07:21;;;;;;;0.50;0.50;;;28.20;99.90;;;;;;5030969;28;20182;-84
2021/06/03 10:09:58;;;;;;;0.60;0.60;;;28.30;99.90;;;;;;5032228;28;20696;-84
2021/06/03 10:12:24;;;;;;;0.60;0.60;;;28.30;99.90;;;;;;5030270;28;20193;-84
2021/06/03 10:14:51;;;;;;;0.70;0.70;;;28.20;99.90;;;;;;5032396;28;20174;-83
2021/06/03 10:17:19;;;;;;;0.50;0.50;;;28.10;99.90;;;;;;5031912;28;20206;-84
2021/06/03 10:19:47;;;;;;;1.02;0.60;;;28.30;99.90;;;;;;5032459;28;20167;-84
2021/06/03 10:22:24;;;;;;;0.40;0.40;;;28.20;99.90;;;;;;5029887;28;20197;-84
2021/06/03 10:25:08;;;;;;;0.40;0.40;;;28.10;99.90;;;;;;5034696;28;20652;-84
2021/06/03 10:27:44;;;;;;;2.83;0.85;;;28.10;99.90;;;;;;5030489;28;20220;-84
2021/06/03 10:30:14;;;;;;;0.38;0.38;;;28.00;99.90;;;;;;5030607;28;20182;-84
2021/06/03 10:32:42;;;;;;;1.33;0.67;;;28.20;99.90;;;;;;5030008;28;20214;-84
2021/06/03 10:35:14;;;;;;;0.53;0.53;;;28.00;99.90;;;;;;5030785;28;20234;-83
2021/06/03 10:37:42;;;;;;;0.55;0.50;;;28.20;99.90;;;;;;5030446;28;20260;-84
2021/06/03 10:40:13;;;;;;;0.80;0.70;;;28.50;99.90;;;;;;5030477;28;20190;-84
2021/06/03 10:42:40;;;;;;;0.40;0.40;;;28.60;99.90;;;;;;5029688;28;20184;-84
2021/06/03 10:45:08;;;;;;;0.30;0.30;;;28.90;99.90;;;;;;5030390;28;20253;-84
2021/06/03 10:47:34;;;;;;;0.40;0.40;;;28.80;99.90;;;;;;5031850;28;20253;-84
2021/06/03 10:50:03;;;;;;;0.38;0.38;;;29.10;99.90;;;;;;5030353;28;20175;-84
2021/06/03 10:52:30;;;;;;;0.63;0.60;;;29.20;99.90;;;;;;5030212;28;20655;-83
2021/06/03 10:54:57;;;;;;;0.60;0.60;;;29.20;99.90;;;;;;5030563;28;20199;-86
2021/06/03 10:57:51;;;;;;;1.13;0.73;;;29.00;99.90;;;;;;5030271;28;20202;-82
2021/06/03 11:00:37;;;;;;;0.60;0.60;;;28.70;99.90;;;;;;5034324;28;20190;-82
2021/06/03 11:03:09;;;;;;;0.50;0.50;;;29.00;99.90;;;;;;5031350;28;20186;-83
2021/06/03 11:05:45;;;;;;;0.45;0.45;;;29.10;99.90;;;;;;5035158;28;20174;-82
2021/06/03 11:08:30;;;;;;;0.60;0.60;;;29.50;99.90;;;;;;5034148;28;20214;-83
2021/06/03 11:11:08;;;;;;;0.52;0.52;;;29.40;99.90;;;;;;5033573;28;20182;-83
2021/06/03 11:13:35;;;;;;;0.85;0.85;;;28.60;99.90;;;;;;5034168;28;20189;-83
2021/06/03 11:16:06;;;;;;;0.73;0.73;;;28.40;99.90;;;;;;5034956;28;20182;-83
2021/06/03 11:18:49;;;;;;;0.55;0.55;;;28.40;99.90;;;;;;5034424;28;20238;-85
2021/06/03 11:21:33;;;;;;;1.10;0.80;;;28.20;99.90;;;;;;5034538;28;20217;-85
2021/06/03 11:24:35;;;;;;;0.38;0.38;;;28.70;99.90;;;;;;5033730;28;20189;-83
2021/06/03 11:27:14;;;;;;;0.60;0.60;;;29.00;99.90;;;;;;5026928;28;20626;-83
2021/06/03 11:29:50;;;;;;;0.70;0.70;;;29.10;99.90;;;;;;5033732;28;20273;-83
2021/06/03 11:32:28;;;;;;;1.30;1.20;;;29.10;99.90;;;;;;5033335;28;20320;-83
2021/06/03 11:34:56;;;;;;;0.70;0.70;;;28.90;99.90;;;;;;5033560;28;20630;-83
2021/06/03 11:37:43;;;;;;;1.13;1.02;;;29.10;99.90;;;;;;5038790;28;20587;-83
2021/06/03 11:40:23;;;;;;;0.77;0.77;;;28.90;99.90;;;;;;5033325;28;20663;-83
2021/06/03 11:42:55;;;;;;;0.75;0.75;;;29.50;99.90;;;;;;5033119;28;20716;-83
2021/06/03 11:45:30;;;;;;;3.28;0.85;;;30.10;99.90;;;;;;5034215;28;20179;-84
2021/06/03 11:48:07;;;;;;;1.80;0.80;;;29.60;99.90;;;;;;5034485;28;20226;-83
2021/06/03 11:50:33;;;;;;;1.40;0.70;;;29.60;99.90;;;;;;5033255;28;20185;-83
2021/06/03 11:52:59;;;;;;;0.70;0.70;;;29.30;99.90;;;;;;5032441;28;20178;-82
2021/06/03 11:55:34;;;;;;;0.60;0.60;;;29.10;99.90;;;;;;5033422;28;20191;-83
2021/06/03 11:58:18;;;;;;;0.77;0.77;;;29.10;99.90;;;;;;5033877;28;20234;-83
2021/06/03 12:00:50;;;;;;;0.75;0.75;;;28.80;99.90;;;;;;5034058;28;20874;-83
2021/06/03 12:03:27;;;;;;;0.70;0.70;;;28.90;99.90;;;;;;5032727;28;20197;-83
2021/06/03 12:05:56;;;;;;;0.85;0.85;;;28.90;99.90;;;;;;5034170;28;20174;-83
2021/06/03 12:08:32;;;;;;;0.77;0.77;;;28.80;99.90;;;;;;5033653;28;20206;-83
2021/06/03 12:10:58;;;;;;;0.73;0.68;;;29.00;99.90;;;;;;5032315;28;20193;-83
2021/06/03 12:13:23;;;;;;;0.68;0.68;;;29.20;99.90;;;;;;5032798;28;20182;-83
2021/06/03 12:15:49;;;;;;;0.88;0.68;;;29.00;99.90;;;;;;5033809;28;20190;-83
2021/06/03 12:18:15;;;;;;;0.57;0.57;;;29.00;99.90;;;;;;5034224;28;20212;-83
2021/06/03 12:20:41;;;;;;;0.40;0.40;;;29.30;99.90;;;;;;5032190;28;20566;-83
2021/06/03 12:23:08;;;;;;;0.70;0.70;;;29.50;99.90;;;;;;5032252;28;20775;-83
2021/06/03 12:25:40;;;;;;;0.60;0.60;;;29.50;99.90;;;;;;5036275;28;20232;-82
2021/06/03 12:28:07;;;;;;;0.90;0.88;;;29.30;99.90;;;;;;5033509;28;20229;-83
2021/06/03 12:30:36;;;;;;;0.93;0.93;;;29.20;99.90;;;;;;5037116;28;20229;-83
2021/06/03 12:33:13;;;;;;;2.45;0.70;;;29.70;99.90;;;;;;5033312;28;20182;-83
2021/06/03 12:35:46;;;;;;;1.65;1.27;;;30.10;99.90;;;;;;5032372;28;20194;-83
2021/06/03 12:38:28;;;;;;;0.70;0.70;;;30.40;99.90;;;;;;5032066;28;20217;-83
2021/06/03 12:40:54;;;;;;;0.65;0.65;;;30.60;99.90;;;;;;5020913;28;20186;-82
2021/06/03 12:43:20;;;;;;;0.73;0.73;;;30.90;99.90;;;;;;5032088;28;20175;-83
2021/06/03 12:45:47;;;;;;;1.00;1.00;;;30.70;99.90;;;;;;5032114;28;20312;-82
2021/06/03 12:48:15;;;;;;;0.93;0.93;;;30.80;99.90;;;;;;5031759;28;20214;-83
2021/06/03 12:50:46;;;;;;;0.80;0.80;;;31.00;99.90;;;;;;5032287;28;20236;-83
2021/06/03 12:53:15;;;;;;;0.95;0.95;;;30.80;99.90;;;;;;5031728;28;20186;-82
2021/06/03 12:55:42;;;;;;;0.50;0.50;;;30.70;99.90;;;;;;5031922;28;20186;-83
2021/06/03 12:58:10;;;;;;;0.80;0.80;;;31.20;99.90;;;;;;5031465;28;20218;-83
2021/06/03 13:00:37;;;;;;;1.23;0.70;;;31.40;99.90;;;;;;5032869;28;20192;-83
2021/06/03 13:03:23;;;;;;;9.27;0.82;;;31.40;99.90;;;;;;5032780;28;20182;-83